Aérodrome :
LOGIN :

S'inscrire | Disclaimer

   EN    FR    IT 

 










Légende :    VFR   VFR Marginal   IFR   IFR Intensif   IFR Très Intensif
Visi : 
Plafond : 
>= 8 km
>= 3000ft
5 à 8 km
1000 à 3000 ft
1500m à 5 km
500 à 1000 ft
800 à 1500m
200 à 500 ft
< 800m
< 200 ft
Symboles :   Orages  Brouillard  Fortes neiges  Fortes précipitations  Vent > 20 kt
SIGMETs :   Divers  Orages  Givrage  Turbulence  Onde Orograph.  Cendres Volcan.






- Altitude de l'aérodrome : 183 ft
- Code IATA : HAJ


EDDV - Hanover/Langenhagen Int.

DERNIER METAR :
  • 041550Z AUTO 07008KT 3800 -DZ BR OVC004 01/01 Q1018 REDZ NOSIG

METARs EXPIRÉS :
  • 041520Z AUTO 07008KT 3900 -DZ BR OVC004 01/00 Q1018 NOSIG
  • 041450Z AUTO 07009KT 3200 -DZ BR OVC004 01/00 Q1018 TEMPO 2500 OVC005
  • 041420Z AUTO 07010KT 2800 -DZ BR OVC004 01/00 Q1018 TEMPO 3000 OVC005
  • 041350Z AUTO 07009KT 2800 -DZ BR OVC005 01/00 Q1019 TEMPO 3500 OVC004
  • 041320Z AUTO 07009KT 2800 BR OVC005 01/M00 Q1019 TEMPO 3500 -DZ OVC004
  • 041250Z AUTO 08008KT 3400 BR OVC005 01/M00 Q1019 TEMPO 2500 OVC004

TAF COR TAF EDDV
Valide du 04 à 12h jusqu'au 05 à 12h UTC


041150Z 0412/0512 07008KT 3500 BR OVC006
TEMPO 0412/0502 2000 OVC003
PROB30
TEMPO 0412/0417 5000
BECMG 0502/0505 OVC003
TEMPO 0502/0512 2000 DZ
PROB30
TEMPO 0505/0510 1000 OVC001



MET'MAP, la Météo Aéronautique d'un coup d'oeil ! - Copyright ORBIFLY Décembre 2007 - Disclaimer

ORBIFLY MET'MAP TEAM :

Programmation & Développement : Alexandra Zaïnal
Sur une idée originale de : Baudouin d'Aumeries
Soutien technique & logistique : Manuel Goepfert
Assistance : Marc-Olivier Méhu




SOURCES & CREDITS :

   NOAA